Time;durP1;ratioP1;P1;durP2;ratioP2;P2;SDS_P1;SDS_P2;PMS_P1;PMS_P2;Temp;Humidity;BMP_temperature;BMP_pressure;BME280_temperature;BME280_humidity;BME280_pressure;Samples;Min_cycle;Max_cycle;Signal;HPM_P1;HPM_P2
2023/05/11 05:33:48;;;;;;;;;1.00;1.00;;;;;;;;5065065;28;13420;-69
2023/05/11 05:36:14;;;;;;;;;3.00;3.00;;;;;;;;5066337;28;11514;-69
2023/05/11 05:38:39;;;;;;;;;2.00;2.00;;;;;;;;5067651;28;8938;-69
2023/05/11 05:41:05;;;;;;;;;1.25;1.25;;;;;;;;5067523;28;8916;-70
2023/05/11 05:43:30;;;;;;;;;3.50;1.00;;;;;;;;5067591;28;8805;-70
2023/05/11 05:45:55;;;;;;;;;2.00;2.00;;;;;;;;5067723;28;8777;-69
2023/05/11 05:48:20;;;;;;;;;4.25;0.75;;;;;;;;5064995;28;8839;-76
2023/05/11 05:50:46;;;;;;;;;1.00;1.00;;;;;;;;5047437;28;8796;-69
2023/05/11 05:53:11;;;;;;;;;2.00;2.00;;;;;;;;5047489;28;8828;-69
2023/05/11 05:55:36;;;;;;;;;1.50;1.50;;;;;;;;5047365;28;8807;-68
2023/05/11 05:58:02;;;;;;;;;1.25;1.25;;;;;;;;5047306;28;9487;-72
2023/05/11 06:00:27;;;;;;;;;1.00;1.00;;;;;;;;5061316;28;8801;-69
2023/05/11 06:02:52;;;;;;;;;4.50;2.00;;;;;;;;5065169;28;8813;-71
2023/05/11 06:05:18;;;;;;;;;1.75;1.75;;;;;;;;5066897;28;8879;-69
2023/05/11 06:07:43;;;;;;;;;2.00;2.00;;;;;;;;5066954;28;8789;-73
2023/05/11 06:10:08;;;;;;;;;5.00;2.00;;;;;;;;5067028;28;8820;-73
2023/05/11 06:12:33;;;;;;;;;5.50;2.75;;;;;;;;5067211;28;8928;-74
2023/05/11 06:14:59;;;;;;;;;6.25;2.00;;;;;;;;5067171;28;8990;-73
2023/05/11 06:17:24;;;;;;;;;3.50;3.50;;;;;;;;5075624;28;8770;-78
2023/05/11 06:19:49;;;;;;;;;6.50;6.50;;;;;;;;5087303;28;8957;-77
2023/05/11 06:22:15;;;;;;;;;6.25;4.00;;;;;;;;5087434;28;8839;-74
2023/05/11 06:24:40;;;;;;;;;4.50;4.50;;;;;;;;5087129;28;8783;-75
2023/05/11 06:27:06;;;;;;;;;4.00;4.00;;;;;;;;5087288;28;8814;-74
2023/05/11 06:29:31;;;;;;;;;4.75;3.00;;;;;;;;5087102;28;8809;-71
2023/05/11 06:31:57;;;;;;;;;3.50;2.50;;;;;;;;5092010;28;8814;-73
2023/05/11 06:34:22;;;;;;;;;4.50;3.00;;;;;;;;5107271;28;8817;-73
2023/05/11 06:36:48;;;;;;;;;4.50;4.00;;;;;;;;5107285;28;11374;-72
2023/05/11 06:39:13;;;;;;;;;1.25;1.25;;;;;;;;5107304;28;8777;-71
2023/05/11 06:41:38;;;;;;;;;2.00;2.00;;;;;;;;5107292;28;8778;-68
2023/05/11 06:44:04;;;;;;;;;2.00;2.00;;;;;;;;5096509;28;8816;-68
2023/05/11 06:46:29;;;;;;;;;10.00;4.00;;;;;;;;5054558;28;8933;-75
2023/05/11 06:48:55;;;;;;;;;3.00;3.00;;;;;;;;5078437;28;12292;-75
2023/05/11 06:51:20;;;;;;;;;2.50;1.00;;;;;;;;5071818;28;8899;-75
2023/05/11 06:53:46;;;;;;;;;2.25;2.25;;;;;;;;5071802;28;9536;-74
2023/05/11 06:56:11;;;;;;;;;1.00;1.00;;;;;;;;5071833;28;8812;-76
2023/05/11 06:58:36;;;;;;;;;0.50;0.00;;;;;;;;5071681;28;8815;-76
2023/05/11 07:01:04;;;;;;;;;2.50;0.00;;;;;;;;5071685;28;8796;-77
2023/05/11 07:03:29;;;;;;;;;0.00;0.00;;;;;;;;5071706;28;8927;-78
2023/05/11 07:05:55;;;;;;;;;0.00;0.00;;;;;;;;5073104;28;11354;-78
2023/05/11 07:08:20;;;;;;;;;0.00;0.00;;;;;;;;5072953;28;8814;-78
2023/05/11 07:10:45;;;;;;;;;0.75;0.00;;;;;;;;5072567;28;8804;-74
2023/05/11 07:13:10;;;;;;;;;43.75;30.50;;;;;;;;5072554;28;8800;-76
2023/05/11 07:15:36;;;;;;;;;4.25;2.75;;;;;;;;5072906;28;8768;-72
2023/05/11 07:18:01;;;;;;;;;3.00;3.00;;;;;;;;5068189;28;8802;-72
2023/05/11 07:20:26;;;;;;;;;3.25;3.25;;;;;;;;5092770;28;8785;-72
2023/05/11 07:22:54;;;;;;;;;0.00;0.00;;;;;;;;5093016;28;9567;-72
2023/05/11 07:25:20;;;;;;;;;1.00;0.00;;;;;;;;5055332;28;8829;-72
2023/05/11 07:27:45;;;;;;;;;0.00;0.00;;;;;;;;5072614;28;11088;-73
2023/05/11 07:30:10;;;;;;;;;0.00;0.00;;;;;;;;5054721;28;8962;-71
2023/05/11 07:32:36;;;;;;;;;2.50;0.50;;;;;;;;5072509;28;8805;-70
2023/05/11 07:35:01;;;;;;;;;0.00;0.00;;;;;;;;5072048;28;8820;-71
2023/05/11 07:37:26;;;;;;;;;7.00;6.00;;;;;;;;5070843;28;8796;-70
2023/05/11 07:39:53;;;;;;;;;0.25;0.25;;;;;;;;5071284;28;8815;-69
2023/05/11 07:42:18;;;;;;;;;2.75;2.25;;;;;;;;5071746;28;8827;-71
2023/05/11 07:44:43;;;;;;;;;0.75;0.00;;;;;;;;5072205;28;9857;-70
2023/05/11 07:47:09;;;;;;;;;1.75;1.75;;;;;;;;5078340;28;8794;-73
2023/05/11 07:49:34;;;;;;;;;30.75;21.00;;;;;;;;5065334;28;8816;-73
2023/05/11 07:52:00;;;;;;;;;13.75;10.50;;;;;;;;5072001;28;8832;-73
2023/05/11 07:54:25;;;;;;;;;6.67;3.00;;;;;;;;5053659;28;8836;-74
2023/05/11 07:56:50;;;;;;;;;9.00;7.00;;;;;;;;5052860;28;8812;-73
2023/05/11 07:59:15;;;;;;;;;9.00;4.00;;;;;;;;5071829;28;8776;-73
2023/05/11 08:01:41;;;;;;;;;0.00;0.00;;;;;;;;5071573;28;8799;-73
2023/05/11 08:04:06;;;;;;;;;4.00;2.00;;;;;;;;5071540;28;9527;-73
2023/05/11 08:06:32;;;;;;;;;1.67;1.67;;;;;;;;5071570;28;8808;-73
2023/05/11 08:08:57;;;;;;;;;0.00;0.00;;;;;;;;5071549;28;8798;-73
2023/05/11 08:11:22;;;;;;;;;0.00;0.00;;;;;;;;5071348;28;8814;-73
2023/05/11 08:13:48;;;;;;;;;0.00;0.00;;;;;;;;5071718;28;8812;-73
2023/05/11 08:16:13;;;;;;;;;1.67;0.00;;;;;;;;5071547;28;8792;-73
2023/05/11 08:18:39;;;;;;;;;0.00;0.00;;;;;;;;5090259;28;8824;-73
2023/05/11 08:21:04;;;;;;;;;0.00;0.00;;;;;;;;5091633;28;8789;-73
2023/05/11 08:23:30;;;;;;;;;0.00;0.00;;;;;;;;5091844;28;8836;-73
2023/05/11 08:25:55;;;;;;;;;2.00;0.00;;;;;;;;5073407;28;8887;-73
2023/05/11 08:28:21;;;;;;;;;0.00;0.00;;;;;;;;5091569;28;10687;-73
2023/05/11 08:30:53;;;;;;;;;0.00;0.00;;;;;;;;5091651;28;8869;-73
2023/05/11 08:33:19;;;;;;;;;0.00;0.00;;;;;;;;5091829;28;8838;-72
2023/05/11 08:35:44;;;;;;;;;0.00;0.00;;;;;;;;5073356;28;8806;-73
2023/05/11 08:38:10;;;;;;;;;0.00;0.00;;;;;;;;5073308;28;9042;-72
2023/05/11 08:40:35;;;;;;;;;0.00;0.00;;;;;;;;5091238;28;8801;-73
2023/05/11 08:43:04;;;;;;;;;0.00;0.00;;;;;;;;5091306;28;8790;-73
2023/05/11 08:45:30;;;;;;;;;1.00;0.00;;;;;;;;5091499;28;9586;-73
2023/05/11 08:47:55;;;;;;;;;0.00;0.00;;;;;;;;5091355;28;8905;-73
2023/05/11 08:50:21;;;;;;;;;0.00;0.00;;;;;;;;5091006;28;8820;-72
2023/05/11 08:52:47;;;;;;;;;0.00;0.00;;;;;;;;5091179;28;8822;-73
2023/05/11 08:55:12;;;;;;;;;0.67;0.00;;;;;;;;5091127;28;8798;-73
2023/05/11 08:57:39;;;;;;;;;0.00;0.00;;;;;;;;5091390;28;8854;-73
2023/05/11 09:00:06;;;;;;;;;0.00;0.00;;;;;;;;5091129;28;8897;-73
2023/05/11 09:02:32;;;;;;;;;0.00;0.00;;;;;;;;5090856;28;8798;-74
2023/05/11 09:04:58;;;;;;;;;0.00;0.00;;;;;;;;5072829;28;8863;-73
2023/05/11 09:07:23;;;;;;;;;0.00;0.00;;;;;;;;5090809;28;8859;-73
2023/05/11 09:09:49;;;;;;;;;0.00;0.00;;;;;;;;5090889;28;8798;-73
2023/05/11 09:12:15;;;;;;;;;0.00;0.00;;;;;;;;5090806;28;8995;-73
2023/05/11 09:14:41;;;;;;;;;0.00;0.00;;;;;;;;5090856;28;8782;-73
2023/05/11 09:17:07;;;;;;;;;0.00;0.00;;;;;;;;5090827;28;8840;-73
2023/05/11 09:19:32;;;;;;;;;0.00;0.00;;;;;;;;5090519;28;11386;-73
2023/05/11 09:21:58;;;;;;;;;0.00;0.00;;;;;;;;5090931;28;8794;-73
2023/05/11 09:24:24;;;;;;;;;0.00;0.00;;;;;;;;5090813;28;8814;-73
2023/05/11 09:27:04;;;;;;;;;1.00;0.00;;;;;;;;5090850;28;8802;-73
2023/05/11 09:29:30;;;;;;;;;0.00;0.00;;;;;;;;5090782;28;8798;-73
2023/05/11 09:31:55;;;;;;;;;0.00;0.00;;;;;;;;5072953;28;9806;-71
2023/05/11 09:34:21;;;;;;;;;0.00;0.00;;;;;;;;5090490;28;8792;-72
2023/05/11 09:36:48;;;;;;;;;0.00;0.00;;;;;;;;5090653;28;8782;-72
2023/05/11 09:39:14;;;;;;;;;0.00;0.00;;;;;;;;5090686;28;8759;-72
2023/05/11 09:41:39;;;;;;;;;0.00;0.00;;;;;;;;5090840;28;8859;-72
2023/05/11 09:44:14;;;;;;;;;0.00;0.00;;;;;;;;5090890;28;8803;-72
2023/05/11 09:46:43;;;;;;;;;0.00;0.00;;;;;;;;5072495;28;8832;-73
2023/05/11 09:49:09;;;;;;;;;0.00;0.00;;;;;;;;5090489;28;8777;-73
2023/05/11 09:51:36;;;;;;;;;0.00;0.00;;;;;;;;5090310;28;8770;-72
2023/05/11 09:54:15;;;;;;;;;0.00;0.00;;;;;;;;5090580;28;8770;-72
2023/05/11 09:56:46;;;;;;;;;0.00;0.00;;;;;;;;5090512;28;8805;-73
2023/05/11 09:59:13;;;;;;;;;0.00;0.00;;;;;;;;5090553;28;8949;-73
2023/05/11 10:01:39;;;;;;;;;0.00;0.00;;;;;;;;5090427;28;8790;-73
2023/05/11 10:04:07;;;;;;;;;2.00;0.00;;;;;;;;5090229;28;8840;-72
2023/05/11 10:06:49;;;;;;;;;0.00;0.00;;;;;;;;5090462;28;8888;-72
2023/05/11 10:09:15;;;;;;;;;0.00;0.00;;;;;;;;5090385;28;9002;-72
2023/05/11 10:11:43;;;;;;;;;1.00;0.00;;;;;;;;5090401;28;8888;-72
2023/05/11 10:14:10;;;;;;;;;0.00;0.00;;;;;;;;5090396;28;8801;-71
2023/05/11 10:16:36;;;;;;;;;0.00;0.00;;;;;;;;5090070;28;9054;-67
2023/05/11 10:19:01;;;;;;;;;0.00;0.00;;;;;;;;5084187;28;8888;-67
2023/05/11 10:21:27;;;;;;;;;0.00;0.00;;;;;;;;5072627;28;8815;-64
2023/05/11 10:23:53;;;;;;;;;0.00;0.00;;;;;;;;5072997;28;8844;-65
2023/05/11 10:26:18;;;;;;;;;16.75;16.75;;;;;;;;5073162;28;8894;-65
2023/05/11 10:28:44;;;;;;;;;0.00;0.00;;;;;;;;5073178;28;8798;-65
2023/05/11 10:31:09;;;;;;;;;0.00;0.00;;;;;;;;5072700;28;8920;-65
2023/05/11 10:33:35;;;;;;;;;0.00;0.00;;;;;;;;5054906;28;8840;-66
2023/05/11 10:36:01;;;;;;;;;1.00;0.00;;;;;;;;5073531;28;8844;-67
2023/05/11 10:38:26;;;;;;;;;0.00;0.00;;;;;;;;5073106;28;9582;-67
2023/05/11 10:40:55;;;;;;;;;0.00;0.00;;;;;;;;5073385;28;9033;-67
2023/05/11 10:43:41;;;;;;;;;0.00;0.00;;;;;;;;5073190;28;8864;-68
2023/05/11 10:46:24;;;;;;;;;1.00;0.00;;;;;;;;5073585;28;9002;-66
2023/05/11 10:48:56;;;;;;;;;0.00;0.00;;;;;;;;5062168;28;9011;-66
2023/05/11 10:51:24;;;;;;;;;0.00;0.00;;;;;;;;5072828;28;9128;-66
2023/05/11 10:53:49;;;;;;;;;0.00;0.00;;;;;;;;5071238;28;9064;-66
2023/05/11 10:56:51;;;;;;;;;0.00;0.00;;;;;;;;5072871;28;8862;-66
2023/05/11 10:59:23;;;;;;;;;0.00;0.00;;;;;;;;5072085;28;8964;-67
2023/05/11 11:01:53;;;;;;;;;0.00;0.00;;;;;;;;5072919;28;8882;-67
2023/05/11 11:04:20;;;;;;;;;3.67;3.00;;;;;;;;5072754;28;8859;-69
2023/05/11 11:06:45;;;;;;;;;0.00;0.00;;;;;;;;5072983;28;9111;-69
2023/05/11 11:09:12;;;;;;;;;1.00;1.00;;;;;;;;5073090;28;8870;-70
2023/05/11 11:11:41;;;;;;;;;1.00;1.00;;;;;;;;5072832;28;8789;-70
2023/05/11 11:14:08;;;;;;;;;0.33;0.33;;;;;;;;5072832;28;9206;-72
2023/05/11 11:16:33;;;;;;;;;2.67;2.00;;;;;;;;5073949;28;9172;-68
2023/05/11 11:19:18;;;;;;;;;4.33;2.33;;;;;;;;5092901;28;9326;-69
2023/05/11 11:21:44;;;;;;;;;8.25;7.00;;;;;;;;5092966;28;8778;-69
2023/05/11 11:24:29;;;;;;;;;15.00;14.50;;;;;;;;5074996;28;10408;-72
2023/05/11 11:26:54;;;;;;;;;2.00;2.00;;;;;;;;5072375;28;9632;-68
2023/05/11 11:29:20;;;;;;;;;1.00;1.00;;;;;;;;5070578;28;9565;-68
2023/05/11 11:31:45;;;;;;;;;9.50;6.50;;;;;;;;5070275;28;8805;-68
2023/05/11 11:34:26;;;;;;;;;10.00;10.00;;;;;;;;5070710;28;8816;-68
2023/05/11 11:36:54;;;;;;;;;5.50;4.75;;;;;;;;5070280;28;8793;-68
2023/05/11 11:39:29;;;;;;;;;3.50;2.00;;;;;;;;5070120;28;9485;-68
2023/05/11 11:42:01;;;;;;;;;3.00;2.00;;;;;;;;5070110;28;9382;-68
2023/05/11 11:44:26;;;;;;;;;1.00;1.00;;;;;;;;5053491;28;9345;-68
2023/05/11 11:47:10;;;;;;;;;1.00;1.00;;;;;;;;5076067;28;9215;-68
2023/05/11 11:49:36;;;;;;;;;0.00;0.00;;;;;;;;5092270;28;8880;-68
2023/05/11 11:52:02;;;;;;;;;1.00;1.00;;;;;;;;5092277;28;8981;-68
2023/05/11 11:54:41;;;;;;;;;0.00;0.00;;;;;;;;5092040;28;8778;-68
2023/05/11 11:57:24;;;;;;;;;0.00;0.00;;;;;;;;5092198;28;9058;-68
2023/05/11 11:59:50;;;;;;;;;0.00;0.00;;;;;;;;5092048;28;9121;-68
2023/05/11 12:02:15;;;;;;;;;0.00;0.00;;;;;;;;5092165;28;9251;-68
2023/05/11 12:04:49;;;;;;;;;0.00;0.00;;;;;;;;5091786;28;9526;-68
2023/05/11 12:07:18;;;;;;;;;0.00;0.00;;;;;;;;5092124;28;8766;-68
2023/05/11 12:09:44;;;;;;;;;0.00;0.00;;;;;;;;5091954;28;9337;-68
2023/05/11 12:12:10;;;;;;;;;0.00;0.00;;;;;;;;5091962;28;9204;-68
2023/05/11 12:14:35;;;;;;;;;0.00;0.00;;;;;;;;5091823;28;10027;-69
2023/05/11 12:17:06;;;;;;;;;0.00;0.00;;;;;;;;5091870;28;8805;-68
2023/05/11 12:19:32;;;;;;;;;0.00;0.00;;;;;;;;5091571;28;8790;-68
2023/05/11 12:21:57;;;;;;;;;0.00;0.00;;;;;;;;5091809;28;9099;-68
2023/05/11 12:24:23;;;;;;;;;0.00;0.00;;;;;;;;5091937;28;8801;-68
2023/05/11 12:26:48;;;;;;;;;0.00;0.00;;;;;;;;5091826;28;8805;-68
2023/05/11 12:29:14;;;;;;;;;0.00;0.00;;;;;;;;5091682;28;8792;-68
2023/05/11 12:31:40;;;;;;;;;0.00;0.00;;;;;;;;5091363;28;8770;-68
2023/05/11 12:34:06;;;;;;;;;1.00;1.00;;;;;;;;5091925;28;8774;-68
2023/05/11 12:36:33;;;;;;;;;0.33;0.00;;;;;;;;5091665;28;9183;-68
2023/05/11 12:38:58;;;;;;;;;0.00;0.00;;;;;;;;5091581;28;8839;-68
2023/05/11 12:41:23;;;;;;;;;0.00;0.00;;;;;;;;5090861;28;9330;-68
2023/05/11 12:43:49;;;;;;;;;1.00;0.00;;;;;;;;5091445;28;9430;-68
2023/05/11 12:46:15;;;;;;;;;0.00;0.00;;;;;;;;5091449;28;8913;-68
2023/05/11 12:48:40;;;;;;;;;1.00;1.00;;;;;;;;5091443;28;8798;-68
2023/05/11 12:51:06;;;;;;;;;1.00;1.00;;;;;;;;5091146;28;8928;-68
2023/05/11 12:53:37;;;;;;;;;1.00;0.00;;;;;;;;5091179;28;8849;-68
2023/05/11 12:56:03;;;;;;;;;0.00;0.00;;;;;;;;5091236;28;8806;-68
2023/05/11 12:58:39;;;;;;;;;1.00;1.00;;;;;;;;5091077;28;9253;-68
2023/05/11 13:01:05;;;;;;;;;0.00;0.00;;;;;;;;5091079;28;9248;-68
2023/05/11 13:03:32;;;;;;;;;0.00;0.00;;;;;;;;5091079;28;9223;-68
2023/05/11 13:06:07;;;;;;;;;0.00;0.00;;;;;;;;5090853;28;9168;-68
2023/05/11 13:08:33;;;;;;;;;0.00;0.00;;;;;;;;5090989;28;9796;-68
2023/05/11 13:11:34;;;;;;;;;0.00;0.00;;;;;;;;5091145;28;9083;-68
2023/05/11 13:14:13;;;;;;;;;0.00;0.00;;;;;;;;5008550;28;9373;-68
2023/05/11 13:16:38;;;;;;;;;0.00;0.00;;;;;;;;5008829;28;9979;-68
2023/05/11 13:19:05;;;;;;;;;0.00;0.00;;;;;;;;4991924;28;9307;-69
2023/05/11 13:21:32;;;;;;;;;0.00;0.00;;;;;;;;5008542;28;9651;-68
2023/05/11 13:23:57;;;;;;;;;0.00;0.00;;;;;;;;5008465;28;9434;-68
2023/05/11 13:26:26;;;;;;;;;0.00;0.00;;;;;;;;5008423;28;9434;-68
2023/05/11 13:28:52;;;;;;;;;0.00;0.00;;;;;;;;5008656;28;9639;-68
2023/05/11 13:31:20;;;;;;;;;0.00;0.00;;;;;;;;5008366;28;9357;-68
2023/05/11 13:33:48;;;;;;;;;0.00;0.00;;;;;;;;5035065;22;8867;-72
2023/05/11 13:36:13;;;;;;;;;0.00;0.00;;;;;;;;5028770;28;9420;-72
2023/05/11 13:38:39;;;;;;;;;0.00;0.00;;;;;;;;5028704;28;9736;-72
2023/05/11 13:41:05;;;;;;;;;0.00;0.00;;;;;;;;5027252;28;8893;-72
2023/05/11 13:43:30;;;;;;;;;0.00;0.00;;;;;;;;5028929;28;8811;-72
2023/05/11 13:45:56;;;;;;;;;0.00;0.00;;;;;;;;5028709;28;9766;-72
2023/05/11 13:48:21;;;;;;;;;0.00;0.00;;;;;;;;5044488;28;8805;-71
2023/05/11 13:50:46;;;;;;;;;0.00;0.00;;;;;;;;5048874;28;8801;-72
2023/05/11 13:53:12;;;;;;;;;0.50;0.50;;;;;;;;5046786;28;8852;-72
2023/05/11 13:55:38;;;;;;;;;0.00;0.00;;;;;;;;5052366;28;8809;-71
2023/05/11 13:58:03;;;;;;;;;1.33;0.00;;;;;;;;5052401;28;8902;-72
2023/05/11 14:00:28;;;;;;;;;0.00;0.00;;;;;;;;5052488;28;8793;-72
2023/05/11 14:02:54;;;;;;;;;2.00;0.00;;;;;;;;5052471;28;8809;-72
2023/05/11 14:05:19;;;;;;;;;0.00;0.00;;;;;;;;5050724;28;8828;-71
2023/05/11 14:07:44;;;;;;;;;0.00;0.00;;;;;;;;5052174;28;8816;-72
2023/05/11 14:10:10;;;;;;;;;0.00;0.00;;;;;;;;5052327;28;8781;-72
2023/05/11 14:12:35;;;;;;;;;0.00;0.00;;;;;;;;5052453;28;8810;-72
2023/05/11 14:15:00;;;;;;;;;0.00;0.00;;;;;;;;5052001;28;8820;-72
2023/05/11 14:17:26;;;;;;;;;0.67;0.67;;;;;;;;5052141;28;8821;-72
2023/05/11 14:19:51;;;;;;;;;1.33;1.33;;;;;;;;5052054;28;8798;-72
2023/05/11 14:22:16;;;;;;;;;0.33;0.33;;;;;;;;5051831;28;8821;-73
2023/05/11 14:24:42;;;;;;;;;2.00;1.00;;;;;;;;5050336;28;8813;-72
2023/05/11 14:27:07;;;;;;;;;0.00;0.00;;;;;;;;5051943;28;8797;-72
2023/05/11 14:29:32;;;;;;;;;1.00;1.00;;;;;;;;5051751;28;8856;-77
2023/05/11 14:31:58;;;;;;;;;2.00;1.00;;;;;;;;5046342;28;8842;-72
2023/05/11 14:34:23;;;;;;;;;0.00;0.00;;;;;;;;5030094;28;9594;-71
2023/05/11 14:36:49;;;;;;;;;0.00;0.00;;;;;;;;5031831;28;8835;-75
2023/05/11 14:39:14;;;;;;;;;1.00;1.00;;;;;;;;5032146;28;8816;-74
2023/05/11 14:41:39;;;;;;;;;0.00;0.00;;;;;;;;5032173;28;8822;-73
2023/05/11 14:44:04;;;;;;;;;0.00;0.00;;;;;;;;5030560;28;8818;-74
2023/05/11 14:46:30;;;;;;;;;0.00;0.00;;;;;;;;5032597;28;9644;-73
2023/05/11 14:48:55;;;;;;;;;1.00;1.00;;;;;;;;5051846;28;8793;-74
2023/05/11 14:51:20;;;;;;;;;0.00;0.00;;;;;;;;5051459;28;8797;-71
2023/05/11 14:53:46;;;;;;;;;0.00;0.00;;;;;;;;5041902;28;8914;-73
2023/05/11 14:56:11;;;;;;;;;0.00;0.00;;;;;;;;5031667;28;8792;-69
2023/05/11 14:58:36;;;;;;;;;0.00;0.00;;;;;;;;5030180;28;8827;-73
2023/05/11 15:01:02;;;;;;;;;3.00;1.50;;;;;;;;5031229;28;8799;-76
2023/05/11 15:03:28;;;;;;;;;1.00;1.00;;;;;;;;5029743;28;8894;-76
2023/05/11 15:05:53;;;;;;;;;1.00;1.00;;;;;;;;5030662;28;9568;-74
2023/05/11 15:08:18;;;;;;;;;1.75;1.75;;;;;;;;5031200;28;9626;-74
2023/05/11 15:10:43;;;;;;;;;1.00;0.50;;;;;;;;5031322;28;8838;-74
2023/05/11 15:13:09;;;;;;;;;2.00;1.00;;;;;;;;5029091;28;9000;-75
2023/05/11 15:15:34;;;;;;;;;0.00;0.00;;;;;;;;5051055;28;8824;-76
2023/05/11 15:18:00;;;;;;;;;0.00;0.00;;;;;;;;5043586;28;8893;-76
2023/05/11 15:20:25;;;;;;;;;0.00;0.00;;;;;;;;5030971;28;8972;-76
2023/05/11 15:22:50;;;;;;;;;0.75;0.75;;;;;;;;5030479;28;8896;-70
2023/05/11 15:25:19;;;;;;;;;1.00;1.00;;;;;;;;5029663;28;8811;-73
2023/05/11 15:27:44;;;;;;;;;2.00;1.00;;;;;;;;5030888;28;8825;-73
2023/05/11 15:30:10;;;;;;;;;3.00;2.00;;;;;;;;5030611;28;9500;-72
2023/05/11 15:32:35;;;;;;;;;1.00;1.00;;;;;;;;5030485;28;8855;-73
2023/05/11 15:35:00;;;;;;;;;1.50;1.00;;;;;;;;5028973;28;8820;-74
2023/05/11 15:37:26;;;;;;;;;1.00;1.00;;;;;;;;5030483;28;9520;-74
2023/05/11 15:39:51;;;;;;;;;0.50;0.50;;;;;;;;5030527;28;8847;-76
2023/05/11 15:42:17;;;;;;;;;0.00;0.00;;;;;;;;5030560;28;8850;-73
2023/05/11 15:44:42;;;;;;;;;1.00;1.00;;;;;;;;5029918;28;8816;-74
2023/05/11 15:47:08;;;;;;;;;1.00;1.00;;;;;;;;5036163;28;8801;-70
2023/05/11 15:49:34;;;;;;;;;0.25;0.25;;;;;;;;5050131;28;9512;-72
2023/05/11 15:52:00;;;;;;;;;2.00;0.33;;;;;;;;5050227;28;9498;-75
2023/05/11 15:54:25;;;;;;;;;4.00;3.50;;;;;;;;5047180;28;9542;-61
2023/05/11 15:56:51;;;;;;;;;5.25;3.00;;;;;;;;4920093;28;11409;-76
2023/05/11 15:59:17;;;;;;;;;0.00;0.00;;;;;;;;4840247;28;10691;-71
2023/05/11 16:01:42;;;;;;;;;0.00;0.00;;;;;;;;5010113;28;8806;-75
2023/05/11 16:04:07;;;;;;;;;0.00;0.00;;;;;;;;5009070;28;8810;-77
2023/05/11 16:06:33;;;;;;;;;0.00;0.00;;;;;;;;5010788;28;8826;-76
2023/05/11 16:08:58;;;;;;;;;4.75;3.00;;;;;;;;5007378;28;8860;-71
2023/05/11 16:11:25;;;;;;;;;0.00;0.00;;;;;;;;5010091;28;8802;-72
2023/05/11 16:13:50;;;;;;;;;1.00;1.00;;;;;;;;5015811;28;8832;-71
2023/05/11 16:16:15;;;;;;;;;0.75;0.75;;;;;;;;5029369;28;10137;-71
2023/05/11 16:18:41;;;;;;;;;0.00;0.00;;;;;;;;5029785;28;8903;-74
2023/05/11 16:21:07;;;;;;;;;0.00;0.00;;;;;;;;5029702;28;8834;-77
2023/05/11 16:23:32;;;;;;;;;1.00;0.00;;;;;;;;5026165;28;8851;-77
2023/05/11 16:25:58;;;;;;;;;0.00;0.00;;;;;;;;5029776;28;11437;-77
2023/05/11 16:28:24;;;;;;;;;0.00;0.00;;;;;;;;5029676;28;8897;-75
2023/05/11 16:30:49;;;;;;;;;1.00;0.00;;;;;;;;5029895;28;9176;-75
2023/05/11 16:33:15;;;;;;;;;1.00;0.00;;;;;;;;5027049;28;8870;-74
2023/05/11 16:35:40;;;;;;;;;0.50;0.00;;;;;;;;5029291;28;8836;-75
2023/05/11 16:38:05;;;;;;;;;1.00;1.00;;;;;;;;5029450;28;8828;-73
2023/05/11 16:40:31;;;;;;;;;1.00;0.00;;;;;;;;5029675;28;8804;-72
2023/05/11 16:42:56;;;;;;;;;0.00;0.00;;;;;;;;5025934;28;8835;-76
2023/05/11 16:45:21;;;;;;;;;1.00;0.00;;;;;;;;5028535;28;8804;-75
2023/05/11 16:47:46;;;;;;;;;9.75;7.50;;;;;;;;5021924;28;9535;-76
2023/05/11 16:50:13;;;;;;;;;2.50;2.00;;;;;;;;5025300;28;9558;-73
2023/05/11 16:52:38;;;;;;;;;3.50;3.50;;;;;;;;5010136;28;8836;-77
2023/05/11 16:55:04;;;;;;;;;8.50;4.50;;;;;;;;5009564;28;9881;-77
2023/05/11 16:57:30;;;;;;;;;1.00;1.00;;;;;;;;5018308;28;8791;-73
2023/05/11 16:59:56;;;;;;;;;0.00;0.00;;;;;;;;5017728;28;8847;-69
2023/05/11 17:02:21;;;;;;;;;0.00;0.00;;;;;;;;5029469;28;11565;-76
2023/05/11 17:04:47;;;;;;;;;2.00;1.00;;;;;;;;5018702;28;9281;-71
2023/05/11 17:07:13;;;;;;;;;7.50;5.25;;;;;;;;5013816;28;8851;-73
2023/05/11 17:09:39;;;;;;;;;28.50;25.00;;;;;;;;5021232;28;8812;-72
2023/05/11 17:12:06;;;;;;;;;21.50;19.00;;;;;;;;5014220;28;10701;-71
2023/05/11 17:14:31;;;;;;;;;19.25;15.50;;;;;;;;5008474;28;8802;-70
2023/05/11 17:16:57;;;;;;;;;3.25;3.25;;;;;;;;5028965;28;10201;-71
2023/05/11 17:19:22;;;;;;;;;21.25;21.25;;;;;;;;5028540;28;9589;-74
2023/05/11 17:21:47;;;;;;;;;1.00;1.00;;;;;;;;5028852;28;8926;-70
2023/05/11 17:24:13;;;;;;;;;2.00;2.00;;;;;;;;5016089;28;8857;-76
2023/05/11 17:26:38;;;;;;;;;1.00;1.00;;;;;;;;5009261;28;8849;-74
2023/05/11 17:29:03;;;;;;;;;0.67;0.67;;;;;;;;5008966;28;8794;-75
2023/05/11 17:31:28;;;;;;;;;1.00;1.00;;;;;;;;5009046;28;8837;-76
2023/05/11 17:33:54;;;;;;;;;1.00;1.00;;;;;;;;5007351;28;8873;-74
2023/05/11 17:36:20;;;;;;;;;2.75;1.00;;;;;;;;5008139;28;8917;-78
2023/05/11 17:38:45;;;;;;;;;1.00;0.25;;;;;;;;5008461;28;8944;-75
2023/05/11 17:41:11;;;;;;;;;1.50;1.50;;;;;;;;5016920;28;9644;-74
2023/05/11 17:43:37;;;;;;;;;1.25;1.25;;;;;;;;4998477;28;8936;-74
2023/05/11 17:46:03;;;;;;;;;1.00;1.00;;;;;;;;4996584;28;8885;-75
2023/05/11 17:48:31;;;;;;;;;3.00;1.00;;;;;;;;5001682;28;8828;-74
2023/05/11 17:50:57;;;;;;;;;7.75;4.50;;;;;;;;4994925;28;9746;-74
2023/05/11 17:53:22;;;;;;;;;10.50;8.50;;;;;;;;4998757;28;10483;-74
2023/05/11 17:55:49;;;;;;;;;1.00;1.00;;;;;;;;4996040;28;8884;-80
2023/05/11 17:58:14;;;;;;;;;0.75;0.75;;;;;;;;4999057;28;8798;-78
2023/05/11 18:00:39;;;;;;;;;8.50;8.00;;;;;;;;4996913;28;9809;-82
2023/05/11 18:03:05;;;;;;;;;9.25;6.00;;;;;;;;4998355;28;8802;-73
2023/05/11 18:05:30;;;;;;;;;20.25;15.25;;;;;;;;5008079;28;9761;-74
2023/05/11 18:07:56;;;;;;;;;4.00;4.00;;;;;;;;5008536;28;8807;-76
2023/05/11 18:10:21;;;;;;;;;3.75;2.25;;;;;;;;5007176;28;9570;-74
2023/05/11 18:12:47;;;;;;;;;2.00;2.00;;;;;;;;5009370;28;8846;-74
2023/05/11 18:15:14;;;;;;;;;1.00;1.00;;;;;;;;4989268;28;9580;-73
2023/05/11 18:17:39;;;;;;;;;4.00;2.75;;;;;;;;5000938;28;8849;-72
2023/05/11 18:20:06;;;;;;;;;2.00;2.00;;;;;;;;5002014;28;10381;-76
2023/05/11 18:22:32;;;;;;;;;3.50;2.25;;;;;;;;5014562;28;9632;-73
2023/05/11 18:24:58;;;;;;;;;6.00;3.25;;;;;;;;5007332;28;10450;-73
2023/05/11 18:27:23;;;;;;;;;4.00;3.25;;;;;;;;5008129;28;11050;-76
2023/05/11 18:29:48;;;;;;;;;2.00;2.00;;;;;;;;5008410;28;8799;-77
2023/05/11 18:32:13;;;;;;;;;2.00;2.00;;;;;;;;5013085;28;8957;-76
2023/05/11 18:34:41;;;;;;;;;6.00;3.00;;;;;;;;5019915;28;8854;-77
2023/05/11 18:37:07;;;;;;;;;2.50;2.00;;;;;;;;5017193;28;8926;-74
2023/05/11 18:39:33;;;;;;;;;3.50;3.00;;;;;;;;5022917;28;10426;-81
2023/05/11 18:41:58;;;;;;;;;3.00;2.75;;;;;;;;5015178;28;10644;-76
2023/05/11 18:44:24;;;;;;;;;7.00;4.50;;;;;;;;5013088;28;8819;-75
2023/05/11 18:46:49;;;;;;;;;3.25;2.75;;;;;;;;5018504;28;8835;-78
2023/05/11 18:49:14;;;;;;;;;3.00;2.75;;;;;;;;5030182;28;8800;-72
2023/05/11 18:51:40;;;;;;;;;3.00;3.00;;;;;;;;5012227;28;8909;-72
2023/05/11 18:54:05;;;;;;;;;3.00;3.00;;;;;;;;5022444;28;8820;-71
2023/05/11 18:56:30;;;;;;;;;2.75;2.75;;;;;;;;5032027;28;8812;-77
2023/05/11 18:58:56;;;;;;;;;2.50;1.75;;;;;;;;5032190;28;8885;-77
2023/05/11 19:01:21;;;;;;;;;11.00;9.25;;;;;;;;5031961;28;9605;-77
2023/05/11 19:03:46;;;;;;;;;8.00;8.00;;;;;;;;5017623;28;9627;-78
2023/05/11 19:06:12;;;;;;;;;37.75;34.25;;;;;;;;5011096;28;8842;-75
2023/05/11 19:08:37;;;;;;;;;56.00;41.75;;;;;;;;5011151;28;8779;-73
2023/05/11 19:11:03;;;;;;;;;65.25;51.50;;;;;;;;5010855;28;8904;-74
2023/05/11 19:13:28;;;;;;;;;2.25;2.00;;;;;;;;5009635;28;8838;-74
2023/05/11 19:15:54;;;;;;;;;3.25;3.00;;;;;;;;5010978;28;10980;-74
2023/05/11 19:18:19;;;;;;;;;2.25;1.00;;;;;;;;5026280;28;8823;-75
2023/05/11 19:20:45;;;;;;;;;3.00;3.00;;;;;;;;5016146;28;9536;-75
2023/05/11 19:23:10;;;;;;;;;5.75;5.00;;;;;;;;5009657;28;8892;-75
2023/05/11 19:25:35;;;;;;;;;3.50;2.75;;;;;;;;5011162;28;8810;-75
2023/05/11 19:28:00;;;;;;;;;5.00;5.00;;;;;;;;5011175;28;8896;-76
2023/05/11 19:30:26;;;;;;;;;5.00;5.00;;;;;;;;5011862;28;8783;-77
2023/05/11 19:32:51;;;;;;;;;6.50;6.50;;;;;;;;5011888;28;8823;-76
2023/05/11 19:35:17;;;;;;;;;6.50;5.00;;;;;;;;5010504;28;9659;-73
2023/05/11 19:37:45;;;;;;;;;14.25;14.00;;;;;;;;5010941;28;8941;-74
2023/05/11 19:40:10;;;;;;;;;59.75;45.75;;;;;;;;5010402;28;8838;-73
2023/05/11 19:42:35;;;;;;;;;34.00;29.25;;;;;;;;5010473;28;11588;-74
2023/05/11 19:45:01;;;;;;;;;22.00;19.75;;;;;;;;5010801;28;8802;-74
2023/05/11 19:47:27;;;;;;;;;21.00;21.00;;;;;;;;5019041;28;8828;-77
2023/05/11 19:49:52;;;;;;;;;22.75;19.50;;;;;;;;5019199;28;8922;-76
2023/05/11 19:52:18;;;;;;;;;32.50;29.00;;;;;;;;5010153;28;11822;-75
2023/05/11 19:54:43;;;;;;;;;21.00;18.00;;;;;;;;5010521;28;9596;-75
2023/05/11 19:57:08;;;;;;;;;33.00;26.50;;;;;;;;5010553;28;9498;-75
2023/05/11 19:59:35;;;;;;;;;11.00;11.00;;;;;;;;5010251;28;8818;-75
2023/05/11 20:02:01;;;;;;;;;10.25;8.75;;;;;;;;5010448;28;8910;-75
2023/05/11 20:04:27;;;;;;;;;11.50;7.50;;;;;;;;5010523;28;10869;-74
2023/05/11 20:06:52;;;;;;;;;7.25;7.25;;;;;;;;5010602;28;8799;-75
2023/05/11 20:09:18;;;;;;;;;4.25;4.25;;;;;;;;5010356;28;9656;-75
2023/05/11 20:11:43;;;;;;;;;10.00;7.00;;;;;;;;5010387;28;8834;-78
2023/05/11 20:14:08;;;;;;;;;8.75;8.25;;;;;;;;5008844;28;8838;-71
2023/05/11 20:16:34;;;;;;;;;10.50;7.50;;;;;;;;5011029;28;8818;-73
2023/05/11 20:18:59;;;;;;;;;9.75;9.50;;;;;;;;5029300;28;8951;-73
2023/05/11 20:21:24;;;;;;;;;8.00;8.00;;;;;;;;5027991;28;8816;-74